Time;durP1;ratioP1;P1;durP2;ratioP2;P2;SDS_P1;SDS_P2;PMS_P1;PMS_P2;Temp;Humidity;BMP_temperature;BMP_pressure;BME280_temperature;BME280_humidity;BME280_pressure;Samples;Min_cycle;Max_cycle;Signal;HPM_P1;HPM_P2
2021/03/13 00:01:08;;;;;;;2.00;1.80;;;;;;;;;;4914493;29;20242;-72
2021/03/13 00:03:34;;;;;;;1.53;1.43;;;;;;;;;;4924536;29;20210;-72
2021/03/13 00:06:00;;;;;;;2.07;1.83;;;;;;;;;;4919340;29;20333;-72
2021/03/13 00:08:27;;;;;;;4.10;1.57;;;;;;;;;;4907750;29;20200;-72
2021/03/13 00:10:53;;;;;;;2.50;1.40;;;;;;;;;;4918364;29;20270;-72
2021/03/13 00:13:19;;;;;;;1.43;1.33;;;;;;;;;;4919968;29;20238;-72
2021/03/13 00:15:45;;;;;;;2.10;1.33;;;;;;;;;;4916189;29;20197;-72
2021/03/13 00:18:12;;;;;;;1.70;1.50;;;;;;;;;;4916478;29;20205;-71
2021/03/13 00:20:39;;;;;;;1.80;1.40;;;;;;;;;;4914220;29;20288;-72
2021/03/13 00:23:05;;;;;;;2.03;1.43;;;;;;;;;;4920177;29;20209;-72
2021/03/13 00:25:32;;;;;;;2.67;1.20;;;;;;;;;;4918641;29;20753;-72
2021/03/13 00:27:59;;;;;;;3.13;1.67;;;;;;;;;;4920200;29;20618;-72
2021/03/13 00:30:33;;;;;;;2.47;1.20;;;;;;;;;;4975187;28;20233;-72
2021/03/13 00:33:05;;;;;;;2.97;1.50;;;;;;;;;;5013697;28;20216;-72
2021/03/13 00:35:31;;;;;;;1.47;1.27;;;;;;;;;;5012726;28;20192;-72
2021/03/13 00:37:57;;;;;;;2.53;1.60;;;;;;;;;;4997893;28;20179;-72
2021/03/13 00:40:25;;;;;;;2.50;1.47;;;;;;;;;;5014911;28;20618;-72
2021/03/13 00:42:51;;;;;;;1.83;1.33;;;;;;;;;;5004537;28;20214;-72
2021/03/13 00:45:19;;;;;;;3.40;1.50;;;;;;;;;;5012134;28;20650;-72
2021/03/13 00:47:45;;;;;;;2.53;1.30;;;;;;;;;;5006190;28;20257;-72
2021/03/13 00:50:12;;;;;;;2.37;1.47;;;;;;;;;;5015877;28;20235;-72
2021/03/13 00:52:38;;;;;;;2.47;1.53;;;;;;;;;;5007865;28;20249;-72
2021/03/13 00:55:05;;;;;;;1.90;1.73;;;;;;;;;;5010229;28;20219;-72
2021/03/13 00:57:31;;;;;;;4.27;2.60;;;;;;;;;;5011474;28;20198;-72
2021/03/13 00:59:57;;;;;;;3.80;2.20;;;;;;;;;;5014423;28;20211;-71
2021/03/13 01:02:23;;;;;;;3.63;2.20;;;;;;;;;;5002377;28;20211;-71
2021/03/13 01:04:49;;;;;;;3.63;1.60;;;;;;;;;;5008833;28;20193;-71
2021/03/13 01:07:15;;;;;;;3.30;2.20;;;;;;;;;;5009934;28;20198;-70
2021/03/13 01:09:41;;;;;;;2.10;1.57;;;;;;;;;;5013840;28;21671;-71
2021/03/13 01:12:07;;;;;;;3.50;1.70;;;;;;;;;;5008644;28;20197;-71
2021/03/13 01:14:34;;;;;;;4.43;1.70;;;;;;;;;;4991420;28;20270;-71
2021/03/13 01:17:00;;;;;;;3.63;1.50;;;;;;;;;;5005774;28;20217;-71
2021/03/13 01:19:26;;;;;;;2.40;1.63;;;;;;;;;;4991956;28;20689;-71
2021/03/13 01:21:52;;;;;;;2.30;1.90;;;;;;;;;;5011314;28;20610;-72
2021/03/13 01:24:18;;;;;;;2.97;1.70;;;;;;;;;;5008060;28;20194;-72
2021/03/13 01:26:44;;;;;;;2.03;1.73;;;;;;;;;;5010317;28;20266;-72
2021/03/13 01:29:10;;;;;;;1.63;1.50;;;;;;;;;;5010124;28;20190;-71
2021/03/13 01:31:36;;;;;;;3.17;1.47;;;;;;;;;;5008764;28;20651;-72
2021/03/13 01:34:02;;;;;;;2.20;1.47;;;;;;;;;;4995021;28;20186;-72
2021/03/13 01:36:28;;;;;;;4.03;1.80;;;;;;;;;;5012131;28;20188;-72
2021/03/13 01:38:54;;;;;;;1.57;1.47;;;;;;;;;;5009936;28;20186;-72
2021/03/13 01:41:20;;;;;;;3.37;1.93;;;;;;;;;;4997705;28;20218;-72
2021/03/13 01:43:46;;;;;;;1.73;1.60;;;;;;;;;;4990920;28;20846;-71
2021/03/13 01:46:13;;;;;;;2.80;1.60;;;;;;;;;;5015104;28;20210;-71
2021/03/13 01:48:42;;;;;;;3.57;2.03;;;;;;;;;;5015159;28;20243;-71
2021/03/13 01:51:09;;;;;;;3.53;1.70;;;;;;;;;;5007696;28;20313;-71
2021/03/13 01:53:35;;;;;;;2.83;1.70;;;;;;;;;;5006607;28;20261;-72
2021/03/13 01:56:01;;;;;;;2.73;1.70;;;;;;;;;;5006885;28;20194;-71
2021/03/13 01:58:27;;;;;;;4.10;2.10;;;;;;;;;;5007965;28;20196;-72
2021/03/13 02:00:53;;;;;;;3.33;1.70;;;;;;;;;;4995097;28;20202;-71
2021/03/13 02:03:19;;;;;;;2.63;1.53;;;;;;;;;;5008832;28;20195;-71
2021/03/13 02:05:46;;;;;;;3.03;1.70;;;;;;;;;;5007190;28;20204;-71
2021/03/13 02:08:17;;;;;;;3.23;1.73;;;;;;;;;;4992172;28;20186;-71
2021/03/13 02:10:52;;;;;;;4.40;2.07;;;;;;;;;;5010777;28;20678;-71
2021/03/13 02:13:31;;;;;;;4.70;1.70;;;;;;;;;;4999901;28;20185;-72
2021/03/13 02:16:03;;;;;;;3.80;1.70;;;;;;;;;;5004354;28;20579;-71
2021/03/13 02:18:35;;;;;;;3.40;1.90;;;;;;;;;;5005414;28;20214;-71
2021/03/13 02:21:03;;;;;;;4.50;1.40;;;;;;;;;;5010051;28;20210;-71
2021/03/13 02:23:31;;;;;;;2.17;1.50;;;;;;;;;;4989569;28;20190;-71
2021/03/13 02:26:12;;;;;;;2.37;1.30;;;;;;;;;;4990640;28;20563;-70
2021/03/13 02:28:51;;;;;;;5.43;1.70;;;;;;;;;;5009230;28;20202;-70
2021/03/13 02:31:18;;;;;;;3.47;1.87;;;;;;;;;;5009147;28;20723;-71
2021/03/13 02:33:47;;;;;;;3.90;2.30;;;;;;;;;;5009838;28;20185;-71
2021/03/13 02:36:15;;;;;;;6.60;1.97;;;;;;;;;;5005994;28;20240;-70
2021/03/13 02:38:46;;;;;;;2.10;1.40;;;;;;;;;;4995558;28;20192;-71
2021/03/13 02:41:16;;;;;;;3.03;1.40;;;;;;;;;;5008567;28;20285;-71
2021/03/13 02:43:44;;;;;;;2.47;1.53;;;;;;;;;;5017260;28;20601;-71
2021/03/13 02:46:11;;;;;;;3.00;1.60;;;;;;;;;;5012215;28;20190;-70
2021/03/13 02:48:37;;;;;;;3.77;1.60;;;;;;;;;;5007290;28;20196;-71
2021/03/13 02:51:03;;;;;;;2.27;1.77;;;;;;;;;;5019085;28;20216;-71
2021/03/13 02:53:30;;;;;;;2.50;1.70;;;;;;;;;;4997134;28;20560;-71
2021/03/13 02:55:57;;;;;;;4.27;1.80;;;;;;;;;;5016861;28;20197;-70
2021/03/13 02:58:23;;;;;;;3.07;1.70;;;;;;;;;;5013694;28;20187;-71
2021/03/13 03:00:50;;;;;;;4.60;1.93;;;;;;;;;;4993506;28;20208;-71
2021/03/13 03:03:17;;;;;;;3.57;1.60;;;;;;;;;;5016001;28;20619;-70
2021/03/13 03:05:43;;;;;;;3.90;1.53;;;;;;;;;;5020590;28;20665;-70
2021/03/13 03:08:10;;;;;;;4.77;2.23;;;;;;;;;;5016688;28;20185;-71
2021/03/13 03:10:37;;;;;;;2.97;1.83;;;;;;;;;;5015924;28;20240;-70
2021/03/13 03:13:04;;;;;;;3.07;1.40;;;;;;;;;;5022234;28;20605;-70
2021/03/13 03:15:31;;;;;;;3.47;1.53;;;;;;;;;;5003051;28;20673;-71
2021/03/13 03:17:59;;;;;;;4.10;1.87;;;;;;;;;;5017103;28;20323;-70
2021/03/13 03:20:25;;;;;;;4.93;2.00;;;;;;;;;;5015429;28;20214;-71
2021/03/13 03:22:51;;;;;;;3.80;1.50;;;;;;;;;;4997116;28;20195;-70
2021/03/13 03:25:17;;;;;;;4.97;1.90;;;;;;;;;;4999376;28;20188;-70
2021/03/13 03:27:52;;;;;;;5.83;1.60;;;;;;;;;;5013331;28;20240;-71
2021/03/13 03:30:19;;;;;;;5.17;1.70;;;;;;;;;;5018430;28;20217;-70
2021/03/13 03:32:46;;;;;;;4.30;1.90;;;;;;;;;;5013214;28;20223;-70
2021/03/13 03:35:12;;;;;;;2.57;1.80;;;;;;;;;;5008153;28;20245;-70
2021/03/13 03:37:38;;;;;;;3.60;1.80;;;;;;;;;;4999013;28;20279;-71
2021/03/13 03:40:06;;;;;;;2.67;1.77;;;;;;;;;;4996253;28;20206;-71
2021/03/13 03:42:32;;;;;;;3.37;1.60;;;;;;;;;;5015380;28;20666;-71
2021/03/13 03:44:59;;;;;;;1.83;1.50;;;;;;;;;;5012930;28;20600;-70
2021/03/13 03:47:25;;;;;;;2.30;1.70;;;;;;;;;;5016146;28;20223;-71
2021/03/13 03:49:51;;;;;;;4.23;2.17;;;;;;;;;;5012567;28;20227;-71
2021/03/13 03:52:18;;;;;;;3.20;1.43;;;;;;;;;;5014772;28;20186;-71
2021/03/13 03:54:44;;;;;;;2.27;1.60;;;;;;;;;;5013873;28;20182;-71
2021/03/13 03:57:11;;;;;;;2.07;1.53;;;;;;;;;;4998938;28;20571;-71
2021/03/13 03:59:37;;;;;;;3.97;1.83;;;;;;;;;;5016377;28;20190;-71
2021/03/13 04:02:04;;;;;;;3.73;1.60;;;;;;;;;;5008826;28;20610;-71
2021/03/13 04:04:30;;;;;;;3.90;1.87;;;;;;;;;;5018362;28;20199;-71
2021/03/13 04:06:57;;;;;;;3.80;1.60;;;;;;;;;;4994748;28;20184;-71
2021/03/13 04:09:24;;;;;;;5.07;1.77;;;;;;;;;;5013056;28;20213;-71
2021/03/13 04:11:54;;;;;;;4.53;1.77;;;;;;;;;;5012347;28;20224;-71
2021/03/13 04:14:20;;;;;;;3.53;1.80;;;;;;;;;;5010323;28;20208;-71
2021/03/13 04:16:47;;;;;;;5.60;1.90;;;;;;;;;;5009870;28;20326;-71
2021/03/13 04:19:13;;;;;;;4.10;1.70;;;;;;;;;;5012265;28;20209;-70
2021/03/13 04:21:39;;;;;;;2.60;1.40;;;;;;;;;;4996739;28;20745;-71
2021/03/13 04:24:05;;;;;;;3.13;1.70;;;;;;;;;;5011503;28;20203;-70
2021/03/13 04:26:32;;;;;;;4.17;1.80;;;;;;;;;;5002683;28;20197;-71
2021/03/13 04:28:58;;;;;;;3.87;1.60;;;;;;;;;;4995368;28;20210;-71
2021/03/13 04:31:28;;;;;;;5.63;1.83;;;;;;;;;;5018550;28;20225;-71
2021/03/13 04:33:56;;;;;;;4.30;1.90;;;;;;;;;;4990914;28;20184;-71
2021/03/13 04:36:22;;;;;;;4.90;1.90;;;;;;;;;;5005312;28;20640;-71
2021/03/13 04:38:48;;;;;;;6.03;1.57;;;;;;;;;;5014999;28;20207;-71
2021/03/13 04:41:15;;;;;;;3.90;1.60;;;;;;;;;;5008458;28;20216;-71
2021/03/13 04:43:41;;;;;;;3.53;1.77;;;;;;;;;;5012937;28;20189;-70
2021/03/13 04:46:08;;;;;;;3.23;1.50;;;;;;;;;;5004949;28;20191;-70
2021/03/13 04:48:35;;;;;;;4.47;1.70;;;;;;;;;;5012732;28;20581;-71
2021/03/13 04:51:02;;;;;;;4.10;1.60;;;;;;;;;;5009892;28;20212;-71
2021/03/13 04:53:28;;;;;;;2.33;1.60;;;;;;;;;;5010187;28;20195;-71
2021/03/13 04:55:55;;;;;;;5.03;2.00;;;;;;;;;;5006037;28;20652;-71
2021/03/13 04:58:21;;;;;;;3.70;1.47;;;;;;;;;;4993870;28;20275;-71
2021/03/13 05:00:47;;;;;;;6.13;1.80;;;;;;;;;;4990888;28;20239;-71
2021/03/13 05:03:13;;;;;;;6.83;1.90;;;;;;;;;;5008917;28;20228;-71
2021/03/13 05:05:40;;;;;;;3.07;1.53;;;;;;;;;;5013393;28;20223;-71
2021/03/13 05:08:06;;;;;;;3.60;1.80;;;;;;;;;;5013556;28;20280;-71
2021/03/13 05:10:32;;;;;;;2.13;1.53;;;;;;;;;;4991266;28;20235;-71
2021/03/13 05:12:58;;;;;;;4.80;1.60;;;;;;;;;;4989825;28;20192;-71
2021/03/13 05:15:24;;;;;;;2.13;1.70;;;;;;;;;;4993537;28;20265;-71
2021/03/13 05:17:50;;;;;;;3.90;1.80;;;;;;;;;;5005883;28;20557;-71
2021/03/13 05:20:16;;;;;;;3.77;1.40;;;;;;;;;;4991253;28;20636;-71
2021/03/13 05:22:46;;;;;;;2.70;1.70;;;;;;;;;;5008862;28;20610;-71
2021/03/13 05:25:12;;;;;;;2.83;1.60;;;;;;;;;;5009348;28;20184;-71
2021/03/13 05:27:39;;;;;;;3.70;1.73;;;;;;;;;;5012320;28;20223;-71
2021/03/13 05:30:06;;;;;;;3.43;1.57;;;;;;;;;;5010288;28;20210;-71
2021/03/13 05:32:32;;;;;;;4.90;1.50;;;;;;;;;;5015319;28;20270;-71
2021/03/13 05:34:58;;;;;;;3.77;1.50;;;;;;;;;;5006712;28;20908;-71
2021/03/13 05:37:24;;;;;;;4.00;1.37;;;;;;;;;;5008137;28;20182;-71
2021/03/13 05:39:50;;;;;;;2.10;1.30;;;;;;;;;;5011821;28;20569;-71
2021/03/13 05:42:17;;;;;;;2.43;1.40;;;;;;;;;;5006635;28;20196;-71
2021/03/13 05:44:43;;;;;;;2.13;1.30;;;;;;;;;;5012701;28;20193;-71
2021/03/13 05:47:09;;;;;;;3.27;1.90;;;;;;;;;;4992223;28;20194;-71
2021/03/13 05:49:39;;;;;;;3.13;1.30;;;;;;;;;;5010702;28;20199;-71
2021/03/13 05:52:07;;;;;;;2.97;1.43;;;;;;;;;;5006531;28;20185;-71
2021/03/13 05:54:33;;;;;;;2.00;1.40;;;;;;;;;;5009508;28;20250;-71
2021/03/13 05:57:00;;;;;;;4.17;1.97;;;;;;;;;;5009633;28;20187;-71
2021/03/13 05:59:27;;;;;;;1.57;1.30;;;;;;;;;;5006525;28;20181;-70
2021/03/13 06:01:53;;;;;;;2.53;1.77;;;;;;;;;;5011899;28;20224;-71
2021/03/13 06:04:19;;;;;;;1.47;1.20;;;;;;;;;;5003119;28;20864;-71
2021/03/13 06:06:48;;;;;;;3.47;1.50;;;;;;;;;;5009170;28;20267;-71
2021/03/13 06:09:14;;;;;;;4.17;1.87;;;;;;;;;;5008849;28;20211;-71
2021/03/13 06:11:40;;;;;;;3.53;1.40;;;;;;;;;;5008953;28;20675;-71
2021/03/13 06:14:06;;;;;;;2.17;1.40;;;;;;;;;;5007287;28;20193;-71
2021/03/13 06:16:32;;;;;;;2.43;1.67;;;;;;;;;;5012938;28;20187;-71
2021/03/13 06:18:59;;;;;;;2.70;1.50;;;;;;;;;;4987779;28;20178;-71
2021/03/13 06:21:31;;;;;;;7.60;1.37;;;;;;;;;;5012241;28;20262;-71
2021/03/13 06:23:59;;;;;;;3.00;1.60;;;;;;;;;;5008328;28;20210;-71
2021/03/13 06:26:25;;;;;;;2.50;1.60;;;;;;;;;;5011760;28;20269;-71
2021/03/13 06:28:52;;;;;;;2.43;1.50;;;;;;;;;;5010414;28;20669;-71
2021/03/13 06:31:25;;;;;;;3.83;1.90;;;;;;;;;;4987233;28;20215;-71
2021/03/13 06:33:51;;;;;;;5.30;1.80;;;;;;;;;;5009998;28;20550;-71
2021/03/13 06:36:22;;;;;;;5.47;1.67;;;;;;;;;;5009077;28;20185;-70
2021/03/13 06:38:48;;;;;;;2.77;1.60;;;;;;;;;;5007615;28;20272;-71
2021/03/13 06:41:16;;;;;;;5.37;1.80;;;;;;;;;;5006942;28;20215;-71
2021/03/13 06:43:42;;;;;;;2.87;1.60;;;;;;;;;;5010323;28;20193;-71
2021/03/13 06:46:09;;;;;;;2.10;1.50;;;;;;;;;;4994148;28;20196;-71
2021/03/13 06:48:57;;;;;;;6.23;2.10;;;;;;;;;;5013790;28;20199;-71
2021/03/13 06:51:27;;;;;;;3.47;1.83;;;;;;;;;;5004634;28;20223;-71
2021/03/13 06:53:59;;;;;;;2.70;1.50;;;;;;;;;;5007179;28;20233;-71
2021/03/13 06:56:33;;;;;;;4.73;1.73;;;;;;;;;;5010151;28;20248;-71
2021/03/13 06:59:01;;;;;;;3.37;1.60;;;;;;;;;;5004860;28;20651;-70
2021/03/13 07:01:28;;;;;;;2.60;1.60;;;;;;;;;;5005044;28;20201;-70
2021/03/13 07:03:54;;;;;;;3.50;1.33;;;;;;;;;;5004510;28;20187;-70
2021/03/13 07:06:21;;;;;;;3.90;1.87;;;;;;;;;;4991810;28;20327;-70
2021/03/13 07:08:47;;;;;;;2.07;1.30;;;;;;;;;;5012368;28;20214;-70
2021/03/13 07:11:24;;;;;;;3.10;1.40;;;;;;;;;;5015912;28;20220;-71
2021/03/13 07:13:50;;;;;;;2.87;1.80;;;;;;;;;;5011466;28;20683;-70
2021/03/13 07:16:19;;;;;;;2.93;1.50;;;;;;;;;;5003503;28;20636;-70
2021/03/13 07:18:46;;;;;;;2.93;1.73;;;;;;;;;;5007400;28;20706;-70
2021/03/13 07:21:13;;;;;;;4.03;1.73;;;;;;;;;;5012704;28;20205;-70
2021/03/13 07:23:40;;;;;;;3.80;1.60;;;;;;;;;;5010974;28;20197;-71
2021/03/13 07:26:06;;;;;;;2.20;1.43;;;;;;;;;;5003227;28;20762;-71
2021/03/13 07:28:33;;;;;;;2.27;1.30;;;;;;;;;;5007292;28;20216;-70
2021/03/13 07:31:02;;;;;;;3.43;1.90;;;;;;;;;;4989109;28;20223;-73
2021/03/13 07:33:28;;;;;;;2.67;1.40;;;;;;;;;;4999408;28;20647;-73
2021/03/13 07:35:55;;;;;;;2.13;1.50;;;;;;;;;;5009949;28;20236;-71
2021/03/13 07:38:22;;;;;;;2.10;1.70;;;;;;;;;;5007336;28;20193;-71
2021/03/13 07:40:48;;;;;;;3.23;1.80;;;;;;;;;;5002057;28;20721;-71
2021/03/13 07:43:16;;;;;;;3.17;1.40;;;;;;;;;;4990439;28;20188;-71
2021/03/13 07:45:43;;;;;;;2.17;1.60;;;;;;;;;;5007078;28;20252;-71
2021/03/13 07:48:09;;;;;;;1.57;1.47;;;;;;;;;;4987203;28;20228;-71
2021/03/13 07:50:35;;;;;;;3.57;1.57;;;;;;;;;;4987390;28;20706;-71
2021/03/13 07:53:01;;;;;;;2.77;1.57;;;;;;;;;;5009005;28;20192;-71
2021/03/13 07:55:29;;;;;;;3.90;1.37;;;;;;;;;;5011191;28;20241;-71
2021/03/13 07:57:55;;;;;;;4.60;1.83;;;;;;;;;;5009058;28;20184;-71
2021/03/13 08:00:59;;;;;;;2.93;1.30;;;;;;;;;;5010963;28;20268;-71
2021/03/13 08:03:28;;;;;;;2.17;1.60;;;;;;;;;;4948523;28;20213;-72
2021/03/13 08:05:55;;;;;;;1.60;1.23;;;;;;;;;;4950730;28;20298;-72
2021/03/13 08:08:42;;;;;;;2.67;1.57;;;;;;;;;;4952531;28;20202;-71
2021/03/13 08:11:12;;;;;;;2.40;1.30;;;;;;;;;;4920882;29;20235;-71
2021/03/13 08:13:40;;;;;;;2.00;1.07;;;;;;;;;;4953513;28;20749;-71
2021/03/13 08:16:07;;;;;;;1.77;1.40;;;;;;;;;;4949238;28;20810;-71
2021/03/13 08:18:47;;;;;;;4.30;1.30;;;;;;;;;;4947999;28;20286;-71
2021/03/13 08:21:19;;;;;;;2.87;1.30;;;;;;;;;;4951512;28;20225;-72
2021/03/13 08:23:52;;;;;;;1.90;1.60;;;;;;;;;;4951758;28;20195;-73
2021/03/13 08:26:19;;;;;;;3.37;1.20;;;;;;;;;;4959011;28;20210;-71
2021/03/13 08:28:48;;;;;;;1.83;1.30;;;;;;;;;;4953587;28;20187;-71
2021/03/13 08:31:23;;;;;;;1.10;1.03;;;;;;;;;;4957544;28;20226;-70
2021/03/13 08:33:50;;;;;;;2.97;1.33;;;;;;;;;;4952342;28;20611;-72
2021/03/13 08:36:17;;;;;;;0.97;0.87;;;;;;;;;;4952723;28;20194;-70
2021/03/13 08:39:02;;;;;;;1.27;1.17;;;;;;;;;;5010572;28;20216;-69
2021/03/13 08:41:43;;;;;;;4.80;1.40;;;;;;;;;;4995364;28;20210;-71
2021/03/13 08:44:10;;;;;;;1.93;1.10;;;;;;;;;;4995151;28;20208;-70
2021/03/13 08:46:44;;;;;;;3.58;2.00;;;;;;;;;;5013215;28;20292;-70
2021/03/13 08:49:11;;;;;;;1.73;1.00;;;;;;;;;;5012349;28;20216;-73
2021/03/13 08:51:37;;;;;;;1.73;1.13;;;;;;;;;;4995855;28;20698;-71
2021/03/13 08:54:04;;;;;;;2.38;1.20;;;;;;;;;;5012674;28;20189;-71
2021/03/13 08:56:39;;;;;;;3.15;1.27;;;;;;;;;;5005903;28;20308;-71
2021/03/13 08:59:20;;;;;;;2.60;1.20;;;;;;;;;;4994828;28;20307;-73
2021/03/13 09:02:06;;;;;;;2.53;1.20;;;;;;;;;;5011795;28;20230;-71
2021/03/13 09:04:33;;;;;;;2.03;1.20;;;;;;;;;;4995088;28;20216;-70
2021/03/13 09:07:00;;;;;;;3.03;1.40;;;;;;;;;;5003064;28;20766;-70
2021/03/13 09:09:27;;;;;;;1.57;1.30;;;;;;;;;;4992506;28;20212;-74
2021/03/13 09:11:57;;;;;;;2.53;1.70;;;;;;;;;;5009256;28;20216;-71
2021/03/13 09:14:23;;;;;;;3.00;1.47;;;;;;;;;;5008422;28;20262;-70
2021/03/13 09:16:49;;;;;;;1.40;1.23;;;;;;;;;;4989542;28;20192;-71
2021/03/13 09:19:15;;;;;;;2.17;1.20;;;;;;;;;;5020262;28;20192;-70
2021/03/13 09:21:47;;;;;;;1.27;1.20;;;;;;;;;;5010695;28;20209;-71
2021/03/13 09:24:15;;;;;;;2.10;1.30;;;;;;;;;;5010317;28;20215;-71
2021/03/13 09:26:41;;;;;;;1.93;1.10;;;;;;;;;;5010225;28;20189;-71
2021/03/13 09:29:08;;;;;;;1.33;1.23;;;;;;;;;;4992212;28;20188;-71
2021/03/13 09:31:34;;;;;;;2.23;1.57;;;;;;;;;;5010447;28;20251;-71
2021/03/13 09:34:13;;;;;;;1.97;1.07;;;;;;;;;;5004950;28;20616;-71
2021/03/13 09:36:39;;;;;;;3.17;1.33;;;;;;;;;;5002377;28;20185;-71
2021/03/13 09:39:06;;;;;;;1.37;1.10;;;;;;;;;;5010392;28;20185;-71
2021/03/13 09:41:32;;;;;;;2.83;1.50;;;;;;;;;;5007083;28;21137;-72
2021/03/13 09:43:58;;;;;;;4.47;1.50;;;;;;;;;;5003659;28;20681;-71
2021/03/13 09:46:25;;;;;;;3.23;1.30;;;;;;;;;;5005592;28;20189;-71
2021/03/13 09:48:51;;;;;;;2.70;1.03;;;;;;;;;;5011326;28;20547;-71
2021/03/13 09:51:17;;;;;;;1.63;1.30;;;;;;;;;;5013878;28;20226;-74
2021/03/13 09:53:43;;;;;;;4.27;2.00;;;;;;;;;;4995714;28;20199;-71
2021/03/13 09:56:09;;;;;;;1.03;1.03;;;;;;;;;;5007387;28;20184;-71
2021/03/13 09:58:36;;;;;;;2.90;1.40;;;;;;;;;;5007128;28;20182;-71
2021/03/13 10:01:02;;;;;;;1.27;1.17;;;;;;;;;;5016295;28;20204;-72
2021/03/13 10:03:29;;;;;;;3.43;1.20;;;;;;;;;;5008130;28;20672;-71
2021/03/13 10:05:55;;;;;;;2.00;1.10;;;;;;;;;;5005665;28;20348;-71
2021/03/13 10:08:22;;;;;;;1.40;1.10;;;;;;;;;;5014701;28;20188;-71
2021/03/13 10:10:49;;;;;;;1.70;1.30;;;;;;;;;;5011111;28;20589;-72
2021/03/13 10:13:16;;;;;;;2.60;1.30;;;;;;;;;;4990325;28;20208;-72
2021/03/13 10:15:43;;;;;;;2.10;1.30;;;;;;;;;;5003059;28;20203;-71
2021/03/13 10:18:19;;;;;;;4.70;1.30;;;;;;;;;;5011674;28;20187;-73
2021/03/13 10:20:45;;;;;;;1.60;1.10;;;;;;;;;;5009123;28;20338;-71
2021/03/13 10:23:13;;;;;;;1.33;1.10;;;;;;;;;;5007697;28;20185;-71
2021/03/13 10:25:41;;;;;;;1.40;1.30;;;;;;;;;;5007808;28;20554;-72
2021/03/13 10:28:08;;;;;;;1.40;1.30;;;;;;;;;;5005913;28;20192;-70
2021/03/13 10:30:34;;;;;;;1.30;1.20;;;;;;;;;;5007080;28;20212;-71
2021/03/13 10:33:01;;;;;;;2.07;1.20;;;;;;;;;;5009061;28;20268;-70
2021/03/13 10:35:28;;;;;;;1.50;1.30;;;;;;;;;;5010690;28;20655;-71
2021/03/13 10:37:55;;;;;;;3.37;1.37;;;;;;;;;;5004479;28;20177;-70
2021/03/13 10:40:40;;;;;;;3.50;1.20;;;;;;;;;;5012691;28;20566;-70
2021/03/13 10:43:12;;;;;;;4.20;0.80;;;;;;;;;;5002200;28;20685;-70
2021/03/13 10:45:39;;;;;;;2.73;1.10;;;;;;;;;;4999584;28;20209;-71
2021/03/13 10:48:05;;;;;;;1.80;1.13;;;;;;;;;;5005628;28;20189;-70
2021/03/13 10:50:32;;;;;;;3.60;1.23;;;;;;;;;;5004588;28;20213;-72
2021/03/13 10:52:58;;;;;;;1.80;1.03;;;;;;;;;;5003365;28;20208;-70
2021/03/13 10:55:39;;;;;;;1.10;1.00;;;;;;;;;;5006559;28;20180;-71
2021/03/13 10:58:05;;;;;;;1.17;1.10;;;;;;;;;;5005996;28;20196;-70
2021/03/13 11:00:31;;;;;;;2.17;1.37;;;;;;;;;;4990210;28;20320;-71
2021/03/13 11:02:57;;;;;;;3.47;1.47;;;;;;;;;;5005022;28;20188;-71
2021/03/13 11:05:23;;;;;;;1.83;1.40;;;;;;;;;;5006057;28;20196;-71
2021/03/13 11:07:50;;;;;;;1.23;1.10;;;;;;;;;;4991241;28;20557;-70
2021/03/13 11:10:15;;;;;;;1.40;1.10;;;;;;;;;;5009016;28;20220;-71
2021/03/13 11:12:41;;;;;;;1.60;1.17;;;;;;;;;;5007948;28;20185;-70
2021/03/13 11:15:08;;;;;;;6.40;1.40;;;;;;;;;;4986184;28;20197;-72
2021/03/13 11:17:34;;;;;;;2.60;1.20;;;;;;;;;;5008669;28;20656;-71
2021/03/13 11:20:00;;;;;;;1.63;1.23;;;;;;;;;;5010676;28;20240;-70
2021/03/13 11:22:26;;;;;;;1.13;1.00;;;;;;;;;;5007769;28;20204;-70
2021/03/13 11:24:52;;;;;;;2.53;1.07;;;;;;;;;;5008534;28;20196;-70
2021/03/13 11:27:18;;;;;;;1.57;1.00;;;;;;;;;;5006613;28;20186;-70
2021/03/13 11:29:44;;;;;;;2.03;1.10;;;;;;;;;;5009751;28;20181;-71
2021/03/13 11:32:10;;;;;;;1.23;1.13;;;;;;;;;;5012643;28;20199;-70
2021/03/13 11:34:36;;;;;;;1.50;1.10;;;;;;;;;;5011344;28;20205;-71
2021/03/13 11:37:02;;;;;;;1.10;1.00;;;;;;;;;;5009006;28;20247;-71
2021/03/13 11:39:28;;;;;;;1.43;1.07;;;;;;;;;;5009726;28;20191;-71
2021/03/13 11:41:54;;;;;;;2.87;1.30;;;;;;;;;;5007581;28;20582;-71
2021/03/13 11:44:20;;;;;;;1.10;1.00;;;;;;;;;;5012766;28;20561;-71
2021/03/13 11:46:46;;;;;;;3.73;1.50;;;;;;;;;;5008218;28;20268;-71
2021/03/13 11:49:12;;;;;;;1.87;1.37;;;;;;;;;;5011644;28;20794;-70
2021/03/13 11:51:38;;;;;;;1.27;1.10;;;;;;;;;;4991006;28;20782;-71
2021/03/13 11:54:04;;;;;;;6.83;1.30;;;;;;;;;;5011825;28;20193;-70
2021/03/13 11:56:30;;;;;;;1.47;1.33;;;;;;;;;;5008649;28;20307;-71
2021/03/13 11:58:56;;;;;;;1.57;1.10;;;;;;;;;;5002327;28;20688;-71
2021/03/13 12:01:22;;;;;;;1.40;1.30;;;;;;;;;;5010976;28;20216;-71
2021/03/13 12:03:48;;;;;;;2.77;1.20;;;;;;;;;;4990611;28;20633;-71
2021/03/13 12:06:14;;;;;;;1.67;1.27;;;;;;;;;;5009528;28;20232;-70
2021/03/13 12:08:40;;;;;;;1.73;1.57;;;;;;;;;;5009257;28;20562;-70
2021/03/13 12:11:06;;;;;;;2.03;1.50;;;;;;;;;;5010958;28;20220;-71
2021/03/13 12:13:32;;;;;;;1.83;1.53;;;;;;;;;;4994620;28;20241;-71
2021/03/13 12:15:58;;;;;;;2.33;1.40;;;;;;;;;;4992629;28;20296;-71
2021/03/13 12:18:24;;;;;;;1.63;1.53;;;;;;;;;;5007739;28;20264;-71
2021/03/13 12:20:50;;;;;;;1.60;1.50;;;;;;;;;;5008882;28;20205;-71
2021/03/13 12:23:16;;;;;;;2.47;1.40;;;;;;;;;;5002296;28;20193;-71
2021/03/13 12:25:42;;;;;;;2.10;1.30;;;;;;;;;;4992080;28;20261;-71
2021/03/13 12:28:08;;;;;;;2.20;1.00;;;;;;;;;;5005795;28;20567;-71
2021/03/13 12:30:34;;;;;;;3.30;1.37;;;;;;;;;;4992140;28;20208;-71
2021/03/13 12:33:00;;;;;;;1.53;1.30;;;;;;;;;;5004131;28;20204;-70
2021/03/13 12:35:26;;;;;;;1.70;1.60;;;;;;;;;;5005528;28;20892;-71
2021/03/13 12:37:52;;;;;;;1.90;1.23;;;;;;;;;;5010155;28;20181;-71
2021/03/13 12:40:19;;;;;;;1.83;1.50;;;;;;;;;;5004548;28;20205;-70
2021/03/13 12:42:45;;;;;;;1.63;1.27;;;;;;;;;;5003316;28;20189;-71
2021/03/13 12:45:11;;;;;;;2.30;1.67;;;;;;;;;;5006812;28;20214;-71
2021/03/13 12:47:37;;;;;;;1.80;1.27;;;;;;;;;;5008778;28;20659;-71
2021/03/13 12:50:04;;;;;;;3.07;1.20;;;;;;;;;;5007444;28;20219;-71
2021/03/13 12:52:30;;;;;;;1.07;0.90;;;;;;;;;;5005499;28;20306;-70
2021/03/13 12:54:56;;;;;;;1.13;1.03;;;;;;;;;;5005303;28;20586;-71
2021/03/13 12:57:22;;;;;;;3.30;1.10;;;;;;;;;;5003040;28;20241;-71
2021/03/13 12:59:48;;;;;;;1.50;1.40;;;;;;;;;;5001231;28;20226;-72
2021/03/13 13:02:14;;;;;;;3.40;1.23;;;;;;;;;;5006463;28;20796;-71
2021/03/13 13:04:40;;;;;;;2.23;1.07;;;;;;;;;;5004125;28;20208;-70
2021/03/13 13:07:06;;;;;;;3.83;1.37;;;;;;;;;;5006649;28;20197;-71
2021/03/13 13:09:32;;;;;;;1.23;1.10;;;;;;;;;;5001705;28;20287;-71
2021/03/13 13:11:58;;;;;;;1.37;1.23;;;;;;;;;;5003286;28;20284;-71
2021/03/13 13:14:24;;;;;;;1.13;1.10;;;;;;;;;;5002256;28;20276;-70
2021/03/13 13:16:50;;;;;;;1.63;1.53;;;;;;;;;;4988737;28;20715;-70
2021/03/13 13:19:16;;;;;;;1.50;1.40;;;;;;;;;;5009823;28;20204;-70
2021/03/13 13:21:42;;;;;;;1.47;1.37;;;;;;;;;;5011864;28;20631;-70
2021/03/13 13:24:09;;;;;;;2.67;1.70;;;;;;;;;;5008580;28;20652;-69
2021/03/13 13:26:35;;;;;;;1.63;1.50;;;;;;;;;;5006049;28;20192;-70
2021/03/13 13:29:01;;;;;;;1.90;1.20;;;;;;;;;;4992923;28;20199;-70
2021/03/13 13:31:27;;;;;;;2.10;1.40;;;;;;;;;;4988462;28;20221;-71
2021/03/13 13:33:53;;;;;;;1.63;1.03;;;;;;;;;;5006334;28;20639;-70
2021/03/13 13:36:19;;;;;;;1.53;1.30;;;;;;;;;;5009090;28;20192;-70
2021/03/13 13:38:45;;;;;;;3.27;1.40;;;;;;;;;;5008443;28;20185;-71
2021/03/13 13:41:11;;;;;;;2.67;1.23;;;;;;;;;;4990106;28;20204;-70
2021/03/13 13:43:37;;;;;;;1.07;1.07;;;;;;;;;;5009041;28;20200;-71
2021/03/13 13:46:03;;;;;;;1.40;1.30;;;;;;;;;;5004041;28;20256;-70
2021/03/13 13:48:29;;;;;;;1.20;1.20;;;;;;;;;;5006781;28;20200;-70
2021/03/13 13:50:55;;;;;;;1.20;1.10;;;;;;;;;;5004434;28;20212;-70
2021/03/13 13:53:21;;;;;;;1.40;1.30;;;;;;;;;;4987636;28;20572;-70
2021/03/13 13:55:48;;;;;;;1.20;1.20;;;;;;;;;;5006938;28;20188;-70
2021/03/13 13:58:14;;;;;;;4.10;2.63;;;;;;;;;;4988661;28;20180;-71
2021/03/13 14:00:40;;;;;;;1.53;1.10;;;;;;;;;;5004204;28;20210;-70
2021/03/13 14:03:06;;;;;;;1.40;1.40;;;;;;;;;;4988872;28;20195;-70
2021/03/13 14:05:32;;;;;;;1.40;1.30;;;;;;;;;;5007558;28;20195;-70
2021/03/13 14:07:58;;;;;;;3.97;3.50;;;;;;;;;;5005413;28;20255;-70
2021/03/13 14:10:24;;;;;;;3.00;2.70;;;;;;;;;;4971875;28;20226;-70
2021/03/13 14:12:51;;;;;;;1.50;1.40;;;;;;;;;;4988760;28;20209;-70
2021/03/13 14:15:17;;;;;;;3.93;1.90;;;;;;;;;;4978525;28;20218;-71
2021/03/13 14:17:43;;;;;;;1.57;1.43;;;;;;;;;;4993462;28;20231;-70
2021/03/13 14:20:09;;;;;;;1.70;1.60;;;;;;;;;;4995742;28;20294;-70
2021/03/13 14:22:35;;;;;;;1.77;1.60;;;;;;;;;;4990693;28;20244;-70
2021/03/13 14:25:02;;;;;;;1.43;1.33;;;;;;;;;;4994717;28;20215;-70
2021/03/13 14:27:28;;;;;;;1.97;1.77;;;;;;;;;;4978650;28;20208;-70
2021/03/13 14:29:54;;;;;;;1.47;1.37;;;;;;;;;;4986987;28;20318;-71
2021/03/13 14:32:20;;;;;;;2.03;1.60;;;;;;;;;;4992338;28;20592;-70
2021/03/13 14:34:46;;;;;;;2.03;1.37;;;;;;;;;;4978315;28;20188;-70
2021/03/13 14:37:13;;;;;;;1.30;1.20;;;;;;;;;;5002489;28;20184;-70
2021/03/13 14:39:39;;;;;;;1.30;1.20;;;;;;;;;;4995502;28;20298;-70
2021/03/13 14:42:05;;;;;;;1.50;1.40;;;;;;;;;;5001446;28;20212;-70
2021/03/13 14:44:31;;;;;;;3.50;1.53;;;;;;;;;;4991441;28;20299;-71